createdAt,value
2023-01-15T00:00:30.131Z,89.8
2023-01-15T00:02:31.293Z,89.9
2023-01-15T00:04:29.791Z,89.9
2023-01-15T00:06:30.555Z,89.9
2023-01-15T00:08:29.575Z,89.9
2023-01-15T00:10:29.518Z,89.9
2023-01-15T00:12:29.264Z,90.2
2023-01-15T00:14:29.494Z,90.2
2023-01-15T00:16:29.119Z,90.2
2023-01-15T00:18:28.865Z,90.2
2023-01-15T00:20:28.895Z,90.2
2023-01-15T00:22:28.973Z,90.8
2023-01-15T00:24:28.556Z,89.4
2023-01-15T00:26:31.549Z,90.4
2023-01-15T00:28:28.089Z,89.6
2023-01-15T00:30:28.043Z,90.2
2023-01-15T00:32:28.418Z,89.9
2023-01-15T00:34:28.032Z,89.7
2023-01-15T00:36:27.667Z,90.5
2023-01-15T00:38:27.593Z,89.7
2023-01-15T00:40:27.319Z,90.8
2023-01-15T00:42:27.162Z,90.1
2023-01-15T00:44:26.983Z,90.1
2023-01-15T00:46:26.885Z,90.1
2023-01-15T00:48:26.816Z,90.7
2023-01-15T00:50:26.780Z,90.8
2023-01-15T00:52:27.872Z,91.1
2023-01-15T00:54:27.013Z,91.1
2023-01-15T00:56:26.562Z,90.2
2023-01-15T00:58:25.965Z,89.6
2023-01-15T01:00:25.967Z,89.6
2023-01-15T01:02:25.877Z,90.2
2023-01-15T01:04:25.687Z,90.2
2023-01-15T01:06:26.113Z,90.2
2023-01-15T01:08:25.252Z,90.2
2023-01-15T01:10:25.645Z,90.2
2023-01-15T01:12:25.073Z,90.4
2023-01-15T01:14:25.147Z,90.4
2023-01-15T01:16:28.135Z,90.4
2023-01-15T01:18:24.789Z,90.4
2023-01-15T01:20:24.664Z,90.4
2023-01-15T01:22:24.379Z,90.9
2023-01-15T01:24:25.485Z,90.2
2023-01-15T01:26:24.225Z,90.2
2023-01-15T01:28:24.082Z,90.2
2023-01-15T01:30:23.898Z,90.9
2023-01-15T01:32:23.957Z,90.3
2023-01-15T01:34:23.673Z,90.3
2023-01-15T01:36:27.568Z,91.6
2023-01-15T01:38:24.733Z,90
2023-01-15T01:40:23.317Z,90.9
2023-01-15T01:42:23.278Z,90.3
2023-01-15T01:44:52.714Z,90.3
2023-01-15T01:46:23.237Z,91
2023-01-15T01:48:28.415Z,91
2023-01-15T01:50:23.042Z,90.4
2023-01-15T01:52:26.456Z,90.4
2023-01-15T01:54:24.802Z,90.4
2023-01-15T01:56:22.838Z,90.4
2023-01-15T01:58:24.067Z,91.1
2023-01-15T02:00:23.380Z,91.2
2023-01-15T02:02:22.393Z,90.5
2023-01-15T02:04:24.436Z,91.1
2023-01-15T02:06:25.950Z,90.5
2023-01-15T02:08:21.843Z,90.5
2023-01-15T02:10:23.102Z,90.5
2023-01-15T02:12:27.822Z,90.5
2023-01-15T02:14:29.282Z,91.9
2023-01-15T02:16:24.221Z,90.5
2023-01-15T02:18:26.177Z,90.5
2023-01-15T02:20:28.921Z,90.5
2023-01-15T02:22:33.035Z,90.7
2023-01-15T02:24:31.492Z,90.7
2023-01-15T02:26:40.297Z,90.7
2023-01-15T02:28:24.548Z,90.7
2023-01-15T02:30:30.244Z,91.1
2023-01-15T02:32:29.451Z,91.1
2023-01-15T02:34:23.747Z,90.6
2023-01-15T02:36:23.963Z,90.6
2023-01-15T02:38:24.129Z,90.6
2023-01-15T02:40:21.951Z,90.6
2023-01-15T02:42:21.620Z,90.4
2023-01-15T02:44:22.761Z,90.4
2023-01-15T02:46:23.972Z,90.4
2023-01-15T02:48:23.560Z,90.4
2023-01-15T02:50:24.920Z,90.4
2023-01-15T02:52:23.474Z,90.4
2023-01-15T02:54:19.676Z,90.4
2023-01-15T02:56:24.168Z,90.4
2023-01-15T02:58:25.067Z,90.4
2023-01-15T03:00:21.575Z,91
2023-01-15T03:02:22.731Z,90.4
2023-01-15T03:04:26.975Z,90.4
2023-01-15T03:06:25.591Z,90.8
2023-01-15T03:08:17.177Z,90.8
2023-01-15T03:10:17.750Z,90.8
2023-01-15T03:12:23.042Z,90.2
2023-01-15T03:14:21.481Z,91.1
2023-01-15T03:16:25.136Z,91.1
2023-01-15T03:18:20.986Z,90.5
2023-01-15T03:20:20.735Z,90.5
2023-01-15T03:22:23.092Z,90.3
2023-01-15T03:24:23.998Z,90.3
2023-01-15T03:26:16.984Z,90.3
2023-01-15T03:28:22.907Z,90.3
2023-01-15T03:30:18.092Z,90.3
2023-01-15T03:32:18.997Z,90.7
2023-01-15T03:34:16.372Z,91.1
2023-01-15T03:36:19.077Z,91.1
2023-01-15T03:38:19.783Z,91.1
2023-01-15T03:40:15.123Z,91.1
2023-01-15T03:42:26.798Z,90.5
2023-01-15T03:44:24.827Z,90.5
2023-01-15T03:46:29.841Z,91
2023-01-15T03:48:24.732Z,91
2023-01-15T03:50:23.355Z,91.1
2023-01-15T03:52:19.466Z,91.1
2023-01-15T03:54:21.646Z,92.8
2023-01-15T03:56:20.068Z,92.8
2023-01-15T03:58:19.456Z,92.4
2023-01-15T04:00:21.326Z,93
2023-01-15T04:02:16.138Z,91.8
2023-01-15T04:04:15.237Z,92.6
2023-01-15T04:06:14.205Z,92.6
2023-01-15T04:08:17.881Z,92.6
2023-01-15T04:10:12.841Z,92.6
2023-01-15T04:12:16.370Z,93.1
2023-01-15T04:14:18.087Z,93.5
2023-01-15T04:16:13.265Z,93
2023-01-15T04:18:12.387Z,93
2023-01-15T04:20:15.407Z,93
2023-01-15T04:22:11.890Z,92.7
2023-01-15T04:24:11.666Z,92.7
2023-01-15T04:26:11.926Z,92.7
2023-01-15T04:28:11.373Z,93.5
2023-01-15T04:30:12.397Z,92.6
2023-01-15T04:32:11.191Z,92.4
2023-01-15T04:34:10.969Z,92.4
2023-01-15T04:36:10.727Z,92.4
2023-01-15T04:38:10.609Z,92.4
2023-01-15T04:40:11.389Z,92.1
2023-01-15T04:42:12.054Z,92.1
2023-01-15T04:44:10.117Z,92.1
2023-01-15T04:46:10.449Z,92.1
2023-01-15T04:48:09.989Z,92.1
2023-01-15T04:50:10.764Z,92.1
2023-01-15T04:52:09.519Z,92.4
2023-01-15T04:54:11.436Z,91.5
2023-01-15T04:56:09.531Z,91.5
2023-01-15T04:58:09.145Z,91.5
2023-01-15T05:00:10.335Z,91.5
2023-01-15T05:02:08.993Z,91.5
2023-01-15T05:04:08.734Z,91.5
2023-01-15T05:06:09.702Z,91.5
2023-01-15T05:08:08.171Z,92.6
2023-01-15T05:10:09.466Z,91.5
2023-01-15T05:12:08.408Z,91.2
2023-01-15T05:14:07.861Z,91.2
2023-01-15T05:16:10.057Z,91.2
2023-01-15T05:18:07.673Z,92.1
2023-01-15T05:20:10.118Z,92.1
2023-01-15T05:22:07.143Z,92.2
2023-01-15T05:24:10.122Z,92.2
2023-01-15T05:26:06.873Z,92.2
2023-01-15T05:28:06.802Z,92.2
2023-01-15T05:30:08.634Z,92.2
2023-01-15T05:32:08.887Z,92.6
2023-01-15T05:34:06.320Z,93.2
2023-01-15T05:36:08.789Z,92.6
2023-01-15T05:38:05.920Z,92.6
2023-01-15T05:40:07.247Z,92.6
2023-01-15T05:42:05.576Z,92.5
2023-01-15T05:44:07.611Z,92.5
2023-01-15T05:46:05.524Z,92.5
2023-01-15T05:48:05.343Z,92.5
2023-01-15T05:50:05.561Z,92.5
2023-01-15T05:52:05.210Z,92.9
2023-01-15T05:54:06.370Z,92.6
2023-01-15T05:56:05.543Z,92.6
2023-01-15T05:58:04.414Z,92.6
2023-01-15T06:00:13.301Z,92.6
2023-01-15T06:02:04.162Z,92
2023-01-15T06:04:05.798Z,92
2023-01-15T06:06:04.532Z,92
2023-01-15T06:08:03.832Z,91.5
2023-01-15T06:10:03.817Z,91.5
2023-01-15T06:12:03.591Z,91.7
2023-01-15T06:14:03.096Z,91.7
2023-01-15T06:16:03.364Z,91.7
2023-01-15T06:18:02.771Z,91.7
2023-01-15T06:20:03.059Z,91.7
2023-01-15T06:22:02.401Z,91.3
2023-01-15T06:24:03.554Z,90.8
2023-01-15T06:26:03.243Z,90.8
2023-01-15T06:28:01.960Z,90.8
2023-01-15T06:30:01.845Z,90.8
2023-01-15T06:32:01.555Z,90.9
2023-01-15T06:34:01.649Z,90.9
2023-01-15T06:36:04.060Z,90.9
2023-01-15T06:38:01.194Z,90.9
2023-01-15T06:40:01.294Z,90.9
2023-01-15T06:42:00.777Z,90.8
2023-01-15T06:44:00.798Z,90.8
2023-01-15T06:46:00.598Z,90.8
2023-01-15T06:48:00.787Z,90.8
2023-01-15T06:50:00.280Z,90.8
2023-01-15T06:52:00.631Z,90.6
2023-01-15T06:54:00.261Z,90.6
2023-01-15T06:56:01.115Z,90.6
2023-01-15T06:58:01.771Z,90.6
2023-01-15T06:59:59.514Z,90.6
2023-01-15T07:02:00.363Z,91.1
2023-01-15T07:03:59.330Z,91.1
2023-01-15T07:05:59.035Z,91.1
2023-01-15T07:07:59.044Z,91.1
2023-01-15T07:09:58.715Z,91.4
2023-01-15T07:11:58.573Z,91.2
2023-01-15T07:13:58.575Z,91.2
2023-01-15T07:15:59.617Z,91.2
2023-01-15T07:17:58.239Z,91.2
2023-01-15T07:19:57.972Z,90.8
2023-01-15T07:21:57.832Z,90.8
2023-01-15T07:23:59.557Z,90.8
2023-01-15T07:25:57.484Z,90.8
2023-01-15T07:27:57.477Z,90.8
2023-01-15T07:29:57.240Z,90.8
2023-01-15T07:31:57.208Z,90.8
2023-01-15T07:33:57.322Z,90.8
2023-01-15T07:35:56.859Z,90.8
2023-01-15T07:37:56.666Z,90.8
2023-01-15T07:39:56.617Z,90.8
2023-01-15T07:41:56.374Z,90.5
2023-01-15T07:43:56.516Z,90.6
2023-01-15T07:45:56.639Z,89.8
2023-01-15T07:47:55.959Z,89.8
2023-01-15T07:49:56.301Z,89.8
2023-01-15T07:51:56.101Z,89.9
2023-01-15T07:53:55.575Z,89.9
2023-01-15T07:55:55.505Z,89.9
2023-01-15T07:57:55.356Z,89.9
2023-01-15T07:59:55.481Z,89.9
2023-01-15T08:01:55.250Z,90.1
2023-01-15T08:03:54.978Z,90.1
2023-01-15T08:05:56.844Z,90.1
2023-01-15T08:07:54.616Z,89
2023-01-15T08:09:54.488Z,89
2023-01-15T08:11:54.365Z,89.4
2023-01-15T08:13:54.237Z,89.4
2023-01-15T08:15:54.244Z,89.5
2023-01-15T08:17:54.019Z,89.5
2023-01-15T08:19:53.892Z,89
2023-01-15T08:21:53.771Z,89
2023-01-15T08:23:53.847Z,89
2023-01-15T08:25:53.485Z,89
2023-01-15T08:27:54.038Z,89
2023-01-15T08:29:53.204Z,89
2023-01-15T08:31:53.117Z,90.1
2023-01-15T08:33:52.951Z,88.7
2023-01-15T08:35:52.732Z,89.3
2023-01-15T08:37:52.582Z,89.3
2023-01-15T08:39:52.595Z,89.3
2023-01-15T08:41:52.567Z,89
2023-01-15T08:43:52.523Z,89
2023-01-15T08:45:53.290Z,89
2023-01-15T08:47:55.032Z,88.4
2023-01-15T08:49:51.869Z,88.4
2023-01-15T08:51:51.816Z,88.5
2023-01-15T08:53:52.069Z,88.5
2023-01-15T08:55:51.517Z,89.2
2023-01-15T08:57:51.301Z,89.2
2023-01-15T08:59:51.160Z,89.2
2023-01-15T09:01:51.233Z,88.9
2023-01-15T09:03:50.929Z,88.9
2023-01-15T09:05:50.662Z,88.9
2023-01-15T09:07:50.989Z,88.9
2023-01-15T09:09:50.426Z,88.9
2023-01-15T09:11:50.336Z,88.9
2023-01-15T09:13:50.140Z,88.9
2023-01-15T09:15:50.068Z,89.8
2023-01-15T09:17:50.020Z,88.6
2023-01-15T09:19:50.517Z,88.6
2023-01-15T09:21:49.660Z,89.4
2023-01-15T09:23:49.702Z,88.7
2023-01-15T09:25:53.010Z,88.7
2023-01-15T09:27:50.051Z,88.7
2023-01-15T09:29:49.106Z,88.7
2023-01-15T09:31:48.994Z,89.1
2023-01-15T09:33:48.881Z,89.2
2023-01-15T09:35:48.941Z,89.2
2023-01-15T09:37:51.151Z,89.2
2023-01-15T09:39:48.440Z,89.2
2023-01-15T09:42:04.209Z,89.2
2023-01-15T09:43:57.940Z,89.2
2023-01-15T09:45:54.534Z,89.8
2023-01-15T09:48:10.710Z,90.6
2023-01-15T09:50:00.032Z,89.2
2023-01-15T09:51:57.682Z,89.2
2023-01-15T09:54:02.838Z,89.5
2023-01-15T09:55:49.103Z,89.5
2023-01-15T09:57:52.785Z,89.5
2023-01-15T09:59:49.764Z,88.8
2023-01-15T10:01:48.904Z,89
2023-01-15T10:03:52.471Z,88.8
2023-01-15T10:05:52.322Z,89.7
2023-01-15T10:07:57.082Z,89.1
2023-01-15T10:09:52.444Z,89.1
2023-01-15T10:11:52.045Z,88.8
2023-01-15T10:13:48.835Z,88.8
2023-01-15T10:15:47.428Z,89.7
2023-01-15T10:17:48.822Z,88.7
2023-01-15T10:19:45.753Z,88.7
2023-01-15T10:21:54.772Z,89.6
2023-01-15T10:23:59.465Z,88.5
2023-01-15T10:25:49.256Z,89.3
2023-01-15T10:27:50.188Z,88.4
2023-01-15T10:29:49.026Z,88.4
2023-01-15T10:31:50.057Z,88.6
2023-01-15T10:34:00.525Z,88.6
2023-01-15T10:35:53.798Z,88.9
2023-01-15T10:37:51.109Z,88.9
2023-01-15T10:39:54.230Z,88.9
2023-01-15T10:41:51.604Z,89.2
2023-01-15T10:43:50.317Z,89.2
2023-01-15T10:45:46.882Z,89.2
2023-01-15T10:47:47.701Z,89.2
2023-01-15T10:49:44.517Z,89.2
2023-01-15T10:51:46.098Z,88.4
2023-01-15T10:53:50.018Z,88.4
2023-01-15T10:55:47.070Z,88.4
2023-01-15T10:57:54.185Z,88.7
2023-01-15T10:59:49.469Z,88.1
2023-01-15T11:01:43.196Z,88.8
2023-01-15T11:03:43.855Z,88.8
2023-01-15T11:05:43.265Z,89.7
2023-01-15T11:08:06.440Z,89
2023-01-15T11:09:43.202Z,89
2023-01-15T11:11:45.748Z,88.5
2023-01-15T11:13:52.499Z,88.5
2023-01-15T11:15:46.592Z,88.4
2023-01-15T11:17:44.592Z,88.4
2023-01-15T11:19:43.299Z,88.4
2023-01-15T11:21:43.023Z,88.7
2023-01-15T11:23:41.664Z,88.7
2023-01-15T11:25:49.322Z,88.9
2023-01-15T11:27:41.399Z,89.5
2023-01-15T11:29:44.427Z,88.8
2023-01-15T11:31:41.249Z,88.9
2023-01-15T11:33:44.371Z,88.9
2023-01-15T11:35:50.157Z,90.1
2023-01-15T11:37:40.493Z,88.9
2023-01-15T11:39:50.992Z,88.9
2023-01-15T11:41:40.218Z,89
2023-01-15T11:43:41.350Z,89
2023-01-15T11:45:47.255Z,89
2023-01-15T11:47:49.323Z,89
2023-01-15T11:49:40.095Z,89
2023-01-15T11:51:45.631Z,88.5
2023-01-15T11:53:44.346Z,88.5
2023-01-15T11:55:49.868Z,88.5
2023-01-15T11:57:40.343Z,88.5
2023-01-15T11:59:39.538Z,88.5
2023-01-15T12:01:49.302Z,89
2023-01-15T12:03:40.217Z,89
2023-01-15T12:05:46.853Z,89
2023-01-15T12:07:39.488Z,89
2023-01-15T12:10:01.603Z,89
2023-01-15T12:11:50.247Z,88.5
2023-01-15T12:13:48.552Z,88.3
2023-01-15T12:15:47.785Z,88.3
2023-01-15T12:17:54.503Z,88.3
2023-01-15T12:19:45.778Z,88.3
2023-01-15T12:21:55.359Z,88.4
2023-01-15T12:23:57.700Z,88.4
2023-01-15T12:25:51.705Z,88.4
2023-01-15T12:27:50.681Z,88.4
2023-01-15T12:29:43.770Z,88.4
2023-01-15T12:31:41.476Z,88.1
2023-01-15T12:33:44.369Z,88.1
2023-01-15T12:35:40.601Z,88.1
2023-01-15T12:37:43.718Z,88.1
2023-01-15T12:39:45.642Z,88.1
2023-01-15T12:41:40.743Z,87.8
2023-01-15T12:43:36.153Z,87.8
2023-01-15T12:45:40.474Z,87.8
2023-01-15T12:47:43.607Z,87.8
2023-01-15T12:49:43.064Z,87.8
2023-01-15T12:51:44.934Z,88.5
2023-01-15T12:53:40.668Z,89.1
2023-01-15T12:55:41.229Z,88.3
2023-01-15T12:57:38.135Z,88.3
2023-01-15T12:59:40.402Z,88.3
2023-01-15T13:01:46.167Z,88
2023-01-15T13:03:52.132Z,88
2023-01-15T13:05:41.143Z,88
2023-01-15T13:07:39.196Z,88
2023-01-15T13:09:40.353Z,88
2023-01-15T13:11:34.425Z,88.7
2023-01-15T13:13:37.489Z,88.7
2023-01-15T13:15:41.748Z,88.7
2023-01-15T13:17:47.477Z,88.7
2023-01-15T13:19:41.575Z,88.7
2023-01-15T13:21:36.489Z,87.7
2023-01-15T13:23:48.493Z,87.7
2023-01-15T13:26:06.282Z,87.7
2023-01-15T13:27:48.685Z,87.7
2023-01-15T13:29:44.438Z,87.8
2023-01-15T13:31:53.566Z,88.2
2023-01-15T13:33:37.425Z,88.9
2023-01-15T13:35:36.761Z,88
2023-01-15T13:37:36.894Z,88
2023-01-15T13:39:39.487Z,88.5
2023-01-15T13:41:34.360Z,88
2023-01-15T13:43:36.000Z,88
2023-01-15T13:45:36.117Z,88
2023-01-15T13:47:35.437Z,88
2023-01-15T13:49:34.765Z,88
2023-01-15T13:51:34.322Z,87.7
2023-01-15T13:53:33.760Z,87.7
2023-01-15T13:55:33.850Z,87.7
2023-01-15T13:57:34.302Z,87.7
2023-01-15T13:59:41.510Z,87.7
2023-01-15T14:01:34.329Z,87.7
2023-01-15T14:03:32.294Z,87.4
2023-01-15T14:05:33.386Z,87.4
2023-01-15T14:07:33.834Z,87.4
2023-01-15T14:09:30.610Z,87.4
2023-01-15T14:11:35.649Z,87.8
2023-01-15T14:13:49.865Z,87.8
2023-01-15T14:15:39.760Z,87.8
2023-01-15T14:17:51.746Z,87.8
2023-01-15T14:19:50.777Z,87.8
2023-01-15T14:21:40.129Z,87.8
2023-01-15T14:23:54.588Z,87.8
2023-01-15T14:25:44.225Z,88
2023-01-15T14:27:45.545Z,87.3
2023-01-15T14:29:50.395Z,87.3
2023-01-15T14:31:42.176Z,87.4
2023-01-15T14:33:39.729Z,87.4
2023-01-15T14:35:36.100Z,87.4
2023-01-15T14:37:32.188Z,87.4
2023-01-15T14:39:31.979Z,87.4
2023-01-15T14:41:30.209Z,87.5
2023-01-15T14:43:30.470Z,87.5
2023-01-15T14:45:29.826Z,87.5
2023-01-15T14:47:32.916Z,87.5
2023-01-15T14:49:29.087Z,87.5
2023-01-15T14:51:31.300Z,86.8
2023-01-15T14:53:32.488Z,87.7
2023-01-15T14:55:27.347Z,86.7
2023-01-15T14:57:27.115Z,86.7
2023-01-15T14:59:36.272Z,86.7
2023-01-15T15:01:36.428Z,86.6
2023-01-15T15:03:34.832Z,87.9
2023-01-15T15:05:28.695Z,86.2
2023-01-15T15:07:27.871Z,86.2
2023-01-15T15:09:30.991Z,87
2023-01-15T15:11:34.621Z,86.4
2023-01-15T15:13:30.517Z,86.4
2023-01-15T15:15:36.989Z,86.4
2023-01-15T15:17:33.316Z,86.4
2023-01-15T15:19:30.899Z,87
2023-01-15T15:21:28.920Z,86.6
2023-01-15T15:23:29.546Z,86.6
2023-01-15T15:25:28.607Z,86.3
2023-01-15T15:27:24.608Z,86.5
2023-01-15T15:29:24.228Z,86.5
2023-01-15T15:31:24.777Z,86.4
2023-01-15T15:33:27.652Z,86.4
2023-01-15T15:35:26.889Z,86.4
2023-01-15T15:37:26.379Z,86.4
2023-01-15T15:39:28.544Z,86.4
2023-01-15T15:41:28.847Z,86.5
2023-01-15T15:43:28.253Z,86.5
2023-01-15T15:45:25.789Z,86.5
2023-01-15T15:47:25.277Z,86.5
2023-01-15T15:49:23.038Z,86.5
2023-01-15T15:51:30.833Z,86.4
2023-01-15T15:53:22.591Z,86.4
2023-01-15T15:55:24.509Z,86.4
2023-01-15T15:57:22.929Z,86.4
2023-01-15T15:59:29.775Z,86.4
2023-01-15T16:01:22.170Z,86.4
2023-01-15T16:03:24.284Z,86.4
2023-01-15T16:05:24.380Z,86.4
2023-01-15T16:07:23.915Z,86.4
2023-01-15T16:09:22.228Z,86.4
2023-01-15T16:11:24.070Z,86.5
2023-01-15T16:13:25.294Z,86.5
2023-01-15T16:15:25.023Z,86.5
2023-01-15T16:17:21.301Z,86.5
2023-01-15T16:19:23.064Z,86.5
2023-01-15T16:21:26.954Z,86.4
2023-01-15T16:23:22.175Z,86.4
2023-01-15T16:25:23.332Z,86.4
2023-01-15T16:27:20.287Z,86.4
2023-01-15T16:29:24.734Z,86.4
2023-01-15T16:31:21.464Z,86.6
2023-01-15T16:33:21.288Z,86.6
2023-01-15T16:35:22.592Z,86.6
2023-01-15T16:37:27.401Z,86.6
2023-01-15T16:39:25.537Z,86.6
2023-01-15T16:41:20.425Z,86.8
2023-01-15T16:43:23.240Z,86.8
2023-01-15T16:45:23.768Z,86.8
2023-01-15T16:47:24.169Z,86.8
2023-01-15T16:49:26.496Z,86.8
2023-01-15T16:51:34.451Z,87.2
2023-01-15T16:53:31.274Z,87.2
2023-01-15T16:55:36.693Z,87.2
2023-01-15T16:57:28.890Z,87.2
2023-01-15T16:59:33.942Z,87.2
2023-01-15T17:01:30.997Z,87.2
2023-01-15T17:03:19.124Z,87.2
2023-01-15T17:05:23.593Z,87.2
2023-01-15T17:07:19.374Z,87.2
2023-01-15T17:09:16.301Z,87.2
2023-01-15T17:11:20.788Z,87.3
2023-01-15T17:13:18.699Z,87.3
2023-01-15T17:15:39.236Z,87.2
2023-01-15T17:17:24.032Z,87.2
2023-01-15T17:19:16.820Z,87.2
2023-01-15T17:21:17.792Z,87.2
2023-01-15T17:23:16.125Z,87.2
2023-01-15T17:25:26.264Z,87.2
2023-01-15T17:27:15.154Z,87.2
2023-01-15T17:29:14.737Z,87.2
2023-01-15T17:31:25.239Z,87.4
2023-01-15T17:33:14.585Z,87.4
2023-01-15T17:35:22.667Z,87.4
2023-01-15T17:37:13.712Z,87.4
2023-01-15T17:39:14.295Z,87.4
2023-01-15T17:41:15.612Z,87.1
2023-01-15T17:43:15.238Z,87.1
2023-01-15T17:45:17.743Z,87.8
2023-01-15T17:47:13.268Z,87.2
2023-01-15T17:49:13.345Z,87.2
2023-01-15T17:51:14.583Z,86.7
2023-01-15T17:53:12.565Z,86.7
2023-01-15T17:55:13.669Z,87.4
2023-01-15T17:57:12.271Z,86.7
2023-01-15T17:59:11.974Z,87.6
2023-01-15T18:01:17.350Z,87.1
2023-01-15T18:03:14.812Z,87.1
2023-01-15T18:05:12.904Z,86.5
2023-01-15T18:07:12.624Z,86.5
2023-01-15T18:09:12.028Z,86.5
2023-01-15T18:11:11.369Z,87.1
2023-01-15T18:13:10.687Z,87.1
2023-01-15T18:15:10.817Z,86.6
2023-01-15T18:17:10.461Z,86.6
2023-01-15T18:19:10.202Z,86.6
2023-01-15T18:21:10.002Z,86.9
2023-01-15T18:23:09.940Z,89.4
2023-01-15T18:25:09.771Z,86.7
2023-01-15T18:27:09.898Z,86.7
2023-01-15T18:29:10.041Z,86.7
2023-01-15T18:31:09.272Z,86.8
2023-01-15T18:33:09.153Z,86.8
2023-01-15T18:35:09.679Z,86.8
2023-01-15T18:37:08.876Z,86.8
2023-01-15T18:39:08.815Z,86.8
2023-01-15T18:41:10.691Z,86.7
2023-01-15T18:43:08.963Z,86.7
2023-01-15T18:45:09.758Z,86.7
2023-01-15T18:47:10.297Z,86.7
2023-01-15T18:49:07.562Z,86.7
2023-01-15T18:51:08.484Z,86.8
2023-01-15T18:53:08.680Z,87.2
2023-01-15T18:55:07.624Z,86.6
2023-01-15T18:57:07.007Z,86.6
2023-01-15T18:59:08.721Z,86.6
2023-01-15T19:01:07.495Z,86.8
2023-01-15T19:03:06.379Z,86.8
2023-01-15T19:05:06.909Z,86.8
2023-01-15T19:07:06.040Z,86.8
2023-01-15T19:09:06.765Z,86.8
2023-01-15T19:11:12.280Z,86.9
2023-01-15T19:13:05.426Z,87.2
2023-01-15T19:15:07.335Z,87.2
2023-01-15T19:17:05.329Z,87.2
2023-01-15T19:19:04.909Z,87.2
2023-01-15T19:21:07.241Z,87.2
2023-01-15T19:23:05.977Z,87.2
2023-01-15T19:25:05.029Z,87.2
2023-01-15T19:27:04.824Z,87.2
2023-01-15T19:29:04.316Z,87.2
2023-01-15T19:31:07.301Z,86.7
2023-01-15T19:33:04.619Z,86.7
2023-01-15T19:35:04.055Z,86.7
2023-01-15T19:37:03.731Z,86.7
2023-01-15T19:39:03.145Z,86.7
2023-01-15T19:41:08.624Z,86.8
2023-01-15T19:43:03.312Z,86.6
2023-01-15T19:45:02.810Z,86.6
2023-01-15T19:47:02.552Z,86.6
2023-01-15T19:49:02.184Z,86.6
2023-01-15T19:51:02.221Z,86.8
2023-01-15T19:53:02.691Z,86.8
2023-01-15T19:55:02.286Z,86.8
2023-01-15T19:57:01.450Z,86.8
2023-01-15T19:59:01.432Z,87.1
2023-01-15T20:01:01.460Z,87.2
2023-01-15T20:03:02.309Z,87.2
2023-01-15T20:05:00.766Z,87.2
2023-01-15T20:07:00.603Z,87.2
2023-01-15T20:09:00.321Z,87.2
2023-01-15T20:11:00.160Z,87.5
2023-01-15T20:13:00.278Z,87.5
2023-01-15T20:14:59.874Z,87.8
2023-01-15T20:16:59.635Z,87.8
2023-01-15T20:18:59.432Z,87.8
2023-01-15T20:20:59.310Z,87.5
2023-01-15T20:22:59.367Z,87.5
2023-01-15T20:24:58.890Z,87.5
2023-01-15T20:26:58.805Z,87.5
2023-01-15T20:28:58.455Z,87.5
2023-01-15T20:30:58.588Z,87.8
2023-01-15T20:32:58.199Z,87.8
2023-01-15T20:34:58.095Z,87.8
2023-01-15T20:36:57.749Z,87.8
2023-01-15T20:38:57.529Z,87.8
2023-01-15T20:40:57.351Z,88
2023-01-15T20:42:57.204Z,88
2023-01-15T20:44:57.017Z,88
2023-01-15T20:46:56.738Z,88
2023-01-15T20:48:56.564Z,88
2023-01-15T20:50:56.506Z,88
2023-01-15T20:52:56.772Z,88
2023-01-15T20:54:56.006Z,88.3
2023-01-15T20:56:55.790Z,88.3
2023-01-15T20:58:55.768Z,88.3
2023-01-15T21:01:02.411Z,88.2
2023-01-15T21:02:55.444Z,88.2
2023-01-15T21:04:55.120Z,88.2
2023-01-15T21:06:55.008Z,88.2
2023-01-15T21:08:55.090Z,88.2
2023-01-15T21:10:55.075Z,88.5
2023-01-15T21:12:54.411Z,88.5
2023-01-15T21:14:54.184Z,88.5
2023-01-15T21:16:54.057Z,88.5
2023-01-15T21:18:53.810Z,88.5
2023-01-15T21:20:54.143Z,88.3
2023-01-15T21:22:53.708Z,88.3
2023-01-15T21:24:53.202Z,88.3
2023-01-15T21:26:52.973Z,88.3
2023-01-15T21:28:53.158Z,88.3
2023-01-15T21:30:52.704Z,88.7
2023-01-15T21:32:52.464Z,88.7
2023-01-15T21:34:52.330Z,88.7
2023-01-15T21:36:52.127Z,88.7
2023-01-15T21:38:53.031Z,88.7
2023-01-15T21:40:51.721Z,88.4
2023-01-15T21:42:51.597Z,88.4
2023-01-15T21:44:51.407Z,88.4
2023-01-15T21:46:51.148Z,88.4
2023-01-15T21:48:51.092Z,88.4
2023-01-15T21:50:50.767Z,88.5
2023-01-15T21:52:50.594Z,88.5
2023-01-15T21:54:50.667Z,88.5
2023-01-15T21:56:50.252Z,88.5
2023-01-15T21:58:50.176Z,88.5
2023-01-15T22:00:49.897Z,88.5
2023-01-15T22:02:49.730Z,88.5
2023-01-15T22:04:49.925Z,88.5
2023-01-15T22:06:49.297Z,88.5
2023-01-15T22:08:52.687Z,88.5
2023-01-15T22:10:48.821Z,88.5
2023-01-15T22:12:48.661Z,88.4
2023-01-15T22:14:48.607Z,88.4
2023-01-15T22:16:48.406Z,88.4
2023-01-15T22:18:48.603Z,88.4
2023-01-15T22:20:56.389Z,88.3
2023-01-15T22:22:47.740Z,88.3
2023-01-15T22:24:47.815Z,88.3
2023-01-15T22:26:48.371Z,88.3
2023-01-15T22:28:48.087Z,88.3
2023-01-15T22:30:47.337Z,88.3
2023-01-15T22:32:47.073Z,88.3
2023-01-15T22:34:47.111Z,88.3
2023-01-15T22:36:46.537Z,88.3
2023-01-15T22:38:46.358Z,88.3
2023-01-15T22:40:46.141Z,88.3
2023-01-15T22:42:45.970Z,88.6
2023-01-15T22:44:46.800Z,88.6
2023-01-15T22:46:45.663Z,88.6
2023-01-15T22:48:45.481Z,88.6
2023-01-15T22:50:45.315Z,88.6
2023-01-15T22:52:45.092Z,88.4
2023-01-15T22:54:46.077Z,88.4
2023-01-15T22:56:45.371Z,88.8
2023-01-15T22:58:44.580Z,88.2
2023-01-15T23:00:44.691Z,88.2
2023-01-15T23:02:44.199Z,88.1
2023-01-15T23:04:44.132Z,88.1
2023-01-15T23:06:43.945Z,88.1
2023-01-15T23:08:43.930Z,88.1
2023-01-15T23:10:44.586Z,88.1
2023-01-15T23:12:43.508Z,88
2023-01-15T23:14:43.189Z,88
2023-01-15T23:16:43.177Z,88
2023-01-15T23:18:42.939Z,88
2023-01-15T23:20:42.704Z,88
2023-01-15T23:22:42.569Z,88.1
2023-01-15T23:24:42.323Z,88.1
2023-01-15T23:26:42.153Z,88.1
2023-01-15T23:28:42.969Z,88.1
2023-01-15T23:30:41.815Z,88.1
2023-01-15T23:32:41.664Z,88.3
2023-01-15T23:34:41.499Z,88.3
2023-01-15T23:36:41.217Z,88.3
2023-01-15T23:38:42.042Z,88.3
2023-01-15T23:40:41.769Z,88.3
2023-01-15T23:42:42.209Z,88
2023-01-15T23:44:40.540Z,88
2023-01-15T23:46:40.472Z,88
2023-01-15T23:48:40.322Z,88
2023-01-15T23:50:40.059Z,88
2023-01-15T23:52:39.919Z,88.1
2023-01-15T23:54:39.669Z,88.1
2023-01-15T23:56:39.630Z,88.1
2023-01-15T23:58:39.372Z,88.1
